MSC Poh Lin — H8FC — position and weather

sailwx.info

Track history (hours):
 
Tides and Currents Weather Stations Pressure Air Temp Water Temp Dewpoint Dewpoint Depression Visibility Wind Speed Wind Dir Waves Ship Positions

MSC Poh Lin

Last reported at 2017-Jan-16 21:31 UTC. Time now 2017-Jan-16 21:53 UTC.
Position N 51°18' E 004°16'.

Length 294 m; draft 9.2 m.

Type: Ship (hazmat cat A). MMSI: 357405000.

Date/timePositionNaut miles runAvg speedWind from/ knotsBaromVisibWave heightAir tempDewpointWater temp
2017-Jan-16 21:31N 51°18' E 004°16'0 0.0
2017-Jan-16 20:28N 51°18' E 004°16'0 0.0
2017-Jan-16 19:31N 51°18' E 004°16'0 0.0
2017-Jan-16 18:31N 51°18' E 004°16'0 0.0
2017-Jan-16 17:31N 51°18' E 004°16'0 0.0
2017-Jan-16 16:31N 51°18' E 004°16'0 0.0
2017-Jan-16 15:25N 51°18' E 004°16'0 0.0
2017-Jan-16 14:28N 51°18' E 004°16'0 0.0
2017-Jan-16 13:31N 51°18' E 004°16'0 0.0
2017-Jan-16 12:33N 51°18' E 004°16'3 3.2
2017-Jan-16 11:33N 51°21' E 004°15'9 9.0
2017-Jan-16 10:33N 51°25' E 004°02'1010.0
2017-Jan-16 09:33N 51°21' E 003°47'9 9.5
2017-Jan-16 08:34N 51°25' E 003°33'9 9.3
2017-Jan-16 07:34N 51°24' E 003°18'1211.7
2017-Jan-16 06:33N 51°26' E 002°60'1413.9
2017-Jan-16 05:33N 51°38' E 003°11'8 8.2
2017-Jan-16 04:33N 51°46' E 003°11'1 0.7
2017-Jan-16 03:33N 51°46' E 003°10'3 3.2
2017-Jan-16 02:34N 51°43' E 003°10'1 0.6
2017-Jan-16 01:33N 51°43' E 003°09'1 1.4
2017-Jan-16 00:33N 51°45' E 003°09'4 2.1
2017-Jan-15 22:26N 51°48' E 003°13'2 2.2
2017-Jan-15 21:30N 51°50' E 003°14'1 1.2
2017-Jan-15 20:27N 51°51' E 003°15'0 0.1
2017-Jan-15 18:32N 51°51' E 003°15'1 0.9
2017-Jan-15 17:32N 51°50' E 003°15'2 1.6
2017-Jan-15 16:17N 51°49' E 003°12'1 1.8
2017-Jan-15 15:33N 51°48' E 003°11'3 1.4
2017-Jan-15 13:14N 51°47' E 003°05'1 1.6
2017-Jan-15 12:33N 51°47' E 003°04'2 1.1
2017-Jan-15 10:20N 51°45' E 003°03'1 1.4
2017-Jan-15 09:30N 51°44' E 003°05'4 2.0
2017-Jan-15 07:33N 51°45' E 003°11'1 0.4
2017-Jan-15 05:26N 51°46' E 003°11'0 0.1
2017-Jan-15 04:33N 51°46' E 003°11'2 0.5
2017-Jan-15 01:28N 51°44' E 003°11'2611.8
2017-Jan-14 23:15N 52°03' E 003°41'912.3
2017-Jan-14 22:33N 52°03' E 003°55'8 8.3
2017-Jan-14 21:33N 51°58' E 004°05'1 0.9
2017-Jan-14 20:31N 51°58' E 004°04'0 0.0
2017-Jan-14 19:31N 51°58' E 004°04'0 0.0
2017-Jan-14 18:31N 51°58' E 004°04'0 0.0
2017-Jan-14 17:31N 51°58' E 004°04'0 0.0
2017-Jan-14 16:31N 51°58' E 004°04'0 0.0
2017-Jan-14 15:31N 51°58' E 004°04'0 0.0
2017-Jan-14 14:31N 51°58' E 004°04'0 0.0
2017-Jan-14 13:31N 51°58' E 004°04'0 0.0
2017-Jan-14 12:31N 51°58' E 004°04'0 0.0
2017-Jan-14 11:31N 51°58' E 004°04'0 0.0
2017-Jan-14 10:31N 51°58' E 004°04'0 0.0
2017-Jan-14 09:31N 51°58' E 004°04'0 0.0
2017-Jan-14 08:31N 51°58' E 004°04'0 0.5
2017-Jan-14 07:33N 51°58' E 004°04'5 5.0
2017-Jan-14 06:33N 52°00' E 003°57'7 6.5
2017-Jan-14 05:33N 51°59' E 003°47'5 5.3
2017-Jan-14 04:33N 51°59' E 003°38'30 5.8
2017-Jan-13 23:23N 51°46' E 002°54'32 1.3
2017-Jan-12 22:33N 51°52' E 002°04'7 6.8
2017-Jan-12 21:33N 51°49' E 001°54'7 7.1
2017-Jan-12 20:33N 51°49' E 001°43'9 9.3
2017-Jan-12 19:33N 51°56' E 001°33'9 8.6
2017-Jan-12 18:33N 51°56' E 001°19'2 1.9
2017-Jan-12 17:31N 51°58' E 001°18'0 0.0
2017-Jan-12 16:31N 51°58' E 001°18'0 0.0
2017-Jan-12 15:31N 51°58' E 001°18'0 0.0
2017-Jan-12 14:31N 51°58' E 001°18'0 0.0
2017-Jan-12 13:31N 51°58' E 001°18'0 0.0
2017-Jan-12 12:31N 51°58' E 001°18'0 0.0
2017-Jan-12 11:31N 51°58' E 001°18'0 0.0
2017-Jan-12 10:31N 51°58' E 001°18'0 0.0
2017-Jan-12 09:31N 51°58' E 001°18'0 0.0
2017-Jan-12 08:31N 51°58' E 001°18'0 0.0
2017-Jan-12 07:31N 51°58' E 001°18'1 1.3
2017-Jan-12 06:33N 51°57' E 001°19'10 9.8
2017-Jan-12 05:33N 51°53' E 001°34'8 7.7
2017-Jan-12 04:34N 51°51' E 001°46'6 6.1
2017-Jan-12 03:33N 51°46' E 001°50'1111.0
2017-Jan-12 02:33N 51°35' E 001°54'1312.6
2017-Jan-12 01:33N 51°24' E 002°03'1313.0
2017-Jan-12 00:33N 51°14' E 001°50'1615.7
2017-Jan-11 23:33N 51°02' E 001°34'6319.1
2017-Jan-11 20:16N 50°23' E 000°15'1622.0
2017-Jan-11 19:33N 50°17' W 000°07'2322.8
2017-Jan-11 18:33N 50°10' W 000°41'2423.6
2017-Jan-11 17:34N 50°04' W 001°17'2322.7
2017-Jan-11 16:33N 49°59' W 001°51'13819.7
2017-Jan-11 09:33N 48°59' W 005°02'1818.3
2017-Jan-11 08:33N 48°50' W 005°26'1717.1
2017-Jan-11 07:33N 48°37' W 005°43'54019.0
2017-Jan-10 03:09N 40°07' W 009°51'3619.9
2017-Jan-10 01:20N 39°31' W 009°52'1620.3
2017-Jan-10 00:33N 39°15' W 009°52'2020.3
2017-Jan-09 23:34N 38°55' W 009°50'2020.1
2017-Jan-09 22:33N 38°35' W 009°47'2020.1
2017-Jan-09 21:33N 38°21' W 009°29'2020.3
2017-Jan-09 20:33N 38°06' W 009°11'1818.5
2017-Jan-09 19:33N 37°54' W 008°53'2 2.4
2017-Jan-09 18:31N 37°56' W 008°51'0 0.0
2017-Jan-09 17:31N 37°56' W 008°51'0 0.0
2017-Jan-09 16:31N 37°56' W 008°51'0 0.0
2017-Jan-09 15:31N 37°56' W 008°51'0 0.0
2017-Jan-09 14:31N 37°56' W 008°51'0 0.0
2017-Jan-09 13:31N 37°56' W 008°51'0 0.0
2017-Jan-09 12:31N 37°56' W 008°51'0 0.0
2017-Jan-09 11:31N 37°56' W 008°51'0 0.0
2017-Jan-09 10:34N 37°56' W 008°51'4 3.6
2017-Jan-09 09:33N 37°52' W 008°52'3 3.1
2017-Jan-09 08:33N 37°51' W 008°56'1 0.7
2017-Jan-09 07:33N 37°52' W 008°56'2 2.4
2017-Jan-09 06:33N 37°50' W 008°56'6 6.0
2017-Jan-09 05:34N 37°44' W 008°59'6 6.2
2017-Jan-09 04:33N 37°38' W 009°03'7 7.4
2017-Jan-09 03:33N 37°32' W 009°06'195 9.8
2017-Jan-08 07:34N 35°59' W 005°32'1514.6
2017-Jan-08 06:33N 36°03' W 005°15'  
Track history (hours):
 
Tides and Currents Weather Stations Pressure Air Temp Water Temp Dewpoint Dewpoint Depression Visibility Wind Speed Wind Dir Waves Ship Positions

MSC Poh Lin

Last reported at 2017-Jan-16 21:31 UTC. Time now 2017-Jan-16 21:53 UTC.
Position N 51°18' E 004°16'.

Length 294 m; draft 9.2 m.

Type: Ship (hazmat cat A). MMSI: 357405000.

Date/timePositionNaut miles runAvg speedWind from/ knotsBaromVisibWave heightAir tempDewpointWater temp
2017-Jan-16 21:31N 51°18' E 004°16'0 0.0
2017-Jan-16 20:28N 51°18' E 004°16'0 0.0
2017-Jan-16 19:31N 51°18' E 004°16'0 0.0
2017-Jan-16 18:31N 51°18' E 004°16'0 0.0
2017-Jan-16 17:31N 51°18' E 004°16'0 0.0
2017-Jan-16 16:31N 51°18' E 004°16'0 0.0
2017-Jan-16 15:25N 51°18' E 004°16'0 0.0
2017-Jan-16 14:28N 51°18' E 004°16'0 0.0
2017-Jan-16 13:31N 51°18' E 004°16'0 0.0
2017-Jan-16 12:33N 51°18' E 004°16'3 3.2
2017-Jan-16 11:33N 51°21' E 004°15'9 9.0
2017-Jan-16 10:33N 51°25' E 004°02'1010.0
2017-Jan-16 09:33N 51°21' E 003°47'9 9.5
2017-Jan-16 08:34N 51°25' E 003°33'9 9.3
2017-Jan-16 07:34N 51°24' E 003°18'1211.7
2017-Jan-16 06:33N 51°26' E 002°60'1413.9
2017-Jan-16 05:33N 51°38' E 003°11'8 8.2
2017-Jan-16 04:33N 51°46' E 003°11'1 0.7
2017-Jan-16 03:33N 51°46' E 003°10'3 3.2
2017-Jan-16 02:34N 51°43' E 003°10'1 0.6
2017-Jan-16 01:33N 51°43' E 003°09'1 1.4
2017-Jan-16 00:33N 51°45' E 003°09'4 2.1
2017-Jan-15 22:26N 51°48' E 003°13'2 2.2
2017-Jan-15 21:30N 51°50' E 003°14'1 1.2
2017-Jan-15 20:27N 51°51' E 003°15'0 0.1
2017-Jan-15 18:32N 51°51' E 003°15'1 0.9
2017-Jan-15 17:32N 51°50' E 003°15'2 1.6
2017-Jan-15 16:17N 51°49' E 003°12'1 1.8
2017-Jan-15 15:33N 51°48' E 003°11'3 1.4
2017-Jan-15 13:14N 51°47' E 003°05'1 1.6
2017-Jan-15 12:33N 51°47' E 003°04'2 1.1
2017-Jan-15 10:20N 51°45' E 003°03'1 1.4
2017-Jan-15 09:30N 51°44' E 003°05'4 2.0
2017-Jan-15 07:33N 51°45' E 003°11'1 0.4
2017-Jan-15 05:26N 51°46' E 003°11'0 0.1
2017-Jan-15 04:33N 51°46' E 003°11'2 0.5
2017-Jan-15 01:28N 51°44' E 003°11'2611.8
2017-Jan-14 23:15N 52°03' E 003°41'912.3
2017-Jan-14 22:33N 52°03' E 003°55'8 8.3
2017-Jan-14 21:33N 51°58' E 004°05'1 0.9
2017-Jan-14 20:31N 51°58' E 004°04'0 0.0
2017-Jan-14 19:31N 51°58' E 004°04'0 0.0
2017-Jan-14 18:31N 51°58' E 004°04'0 0.0
2017-Jan-14 17:31N 51°58' E 004°04'0 0.0
2017-Jan-14 16:31N 51°58' E 004°04'0 0.0
2017-Jan-14 15:31N 51°58' E 004°04'0 0.0
2017-Jan-14 14:31N 51°58' E 004°04'0 0.0
2017-Jan-14 13:31N 51°58' E 004°04'0 0.0
2017-Jan-14 12:31N 51°58' E 004°04'0 0.0
2017-Jan-14 11:31N 51°58' E 004°04'0 0.0
2017-Jan-14 10:31N 51°58' E 004°04'0 0.0
2017-Jan-14 09:31N 51°58' E 004°04'0 0.0
2017-Jan-14 08:31N 51°58' E 004°04'0 0.5
2017-Jan-14 07:33N 51°58' E 004°04'5 5.0
2017-Jan-14 06:33N 52°00' E 003°57'7 6.5
2017-Jan-14 05:33N 51°59' E 003°47'5 5.3
2017-Jan-14 04:33N 51°59' E 003°38'30 5.8
2017-Jan-13 23:23N 51°46' E 002°54'32 1.3
2017-Jan-12 22:33N 51°52' E 002°04'7 6.8
2017-Jan-12 21:33N 51°49' E 001°54'7 7.1
2017-Jan-12 20:33N 51°49' E 001°43'9 9.3
2017-Jan-12 19:33N 51°56' E 001°33'9 8.6
2017-Jan-12 18:33N 51°56' E 001°19'2 1.9
2017-Jan-12 17:31N 51°58' E 001°18'0 0.0
2017-Jan-12 16:31N 51°58' E 001°18'0 0.0
2017-Jan-12 15:31N 51°58' E 001°18'0 0.0
2017-Jan-12 14:31N 51°58' E 001°18'0 0.0
2017-Jan-12 13:31N 51°58' E 001°18'0 0.0
2017-Jan-12 12:31N 51°58' E 001°18'0 0.0
2017-Jan-12 11:31N 51°58' E 001°18'0 0.0
2017-Jan-12 10:31N 51°58' E 001°18'0 0.0
2017-Jan-12 09:31N 51°58' E 001°18'0 0.0
2017-Jan-12 08:31N 51°58' E 001°18'0 0.0
2017-Jan-12 07:31N 51°58' E 001°18'1 1.3
2017-Jan-12 06:33N 51°57' E 001°19'10 9.8
2017-Jan-12 05:33N 51°53' E 001°34'8 7.7
2017-Jan-12 04:34N 51°51' E 001°46'6 6.1
2017-Jan-12 03:33N 51°46' E 001°50'1111.0
2017-Jan-12 02:33N 51°35' E 001°54'1312.6
2017-Jan-12 01:33N 51°24' E 002°03'1313.0
2017-Jan-12 00:33N 51°14' E 001°50'1615.7
2017-Jan-11 23:33N 51°02' E 001°34'6319.1
2017-Jan-11 20:16N 50°23' E 000°15'1622.0
2017-Jan-11 19:33N 50°17' W 000°07'2322.8
2017-Jan-11 18:33N 50°10' W 000°41'2423.6
2017-Jan-11 17:34N 50°04' W 001°17'2322.7
2017-Jan-11 16:33N 49°59' W 001°51'13819.7
2017-Jan-11 09:33N 48°59' W 005°02'1818.3
2017-Jan-11 08:33N 48°50' W 005°26'1717.1
2017-Jan-11 07:33N 48°37' W 005°43'54019.0
2017-Jan-10 03:09N 40°07' W 009°51'3619.9
2017-Jan-10 01:20N 39°31' W 009°52'1620.3
2017-Jan-10 00:33N 39°15' W 009°52'2020.3
2017-Jan-09 23:34N 38°55' W 009°50'2020.1
2017-Jan-09 22:33N 38°35' W 009°47'2020.1
2017-Jan-09 21:33N 38°21' W 009°29'2020.3
2017-Jan-09 20:33N 38°06' W 009°11'1818.5
2017-Jan-09 19:33N 37°54' W 008°53'2 2.4
2017-Jan-09 18:31N 37°56' W 008°51'0 0.0
2017-Jan-09 17:31N 37°56' W 008°51'0 0.0
2017-Jan-09 16:31N 37°56' W 008°51'0 0.0
2017-Jan-09 15:31N 37°56' W 008°51'0 0.0
2017-Jan-09 14:31N 37°56' W 008°51'0 0.0
2017-Jan-09 13:31N 37°56' W 008°51'0 0.0
2017-Jan-09 12:31N 37°56' W 008°51'0 0.0
2017-Jan-09 11:31N 37°56' W 008°51'0 0.0
2017-Jan-09 10:34N 37°56' W 008°51'4 3.6
2017-Jan-09 09:33N 37°52' W 008°52'3 3.1
2017-Jan-09 08:33N 37°51' W 008°56'1 0.7
2017-Jan-09 07:33N 37°52' W 008°56'2 2.4
2017-Jan-09 06:33N 37°50' W 008°56'6 6.0
2017-Jan-09 05:34N 37°44' W 008°59'6 6.2
2017-Jan-09 04:33N 37°38' W 009°03'7 7.4
2017-Jan-09 03:33N 37°32' W 009°06'195 9.8
2017-Jan-08 07:34N 35°59' W 005°32'1514.6
2017-Jan-08 06:33N 36°03' W 005°15'  

Dump ship's entire track history